Time;durP1;ratioP1;P1;durP2;ratioP2;P2;SDS_P1;SDS_P2;PMS_P1;PMS_P2;Temp;Humidity;BMP_temperature;BMP_pressure;BME280_temperature;BME280_humidity;BME280_pressure;Samples;Min_cycle;Max_cycle;Signal;HPM_P1;HPM_P2
2022/02/21 00:00:50;;;;;;;33.33;4.78;;;8.30;99.90;;;;;;5067142;28;20435;-70
2022/02/21 00:03:20;;;;;;;30.17;4.75;;;8.30;99.90;;;;;;5030361;28;20503;-68
2022/02/21 00:05:49;;;;;;;28.45;4.57;;;8.30;99.90;;;;;;5067619;28;20399;-68
2022/02/21 00:08:15;;;;;;;31.98;4.75;;;8.30;99.90;;;;;;5066856;28;20422;-69
2022/02/21 00:10:41;;;;;;;28.50;4.50;;;8.20;99.50;;;;;;5067347;28;20399;-67
2022/02/21 00:13:07;;;;;;;33.10;5.93;;;8.20;99.80;;;;;;5067059;28;20447;-69
2022/02/21 00:15:33;;;;;;;33.92;5.15;;;8.20;99.60;;;;;;5066005;28;20764;-68
2022/02/21 00:17:59;;;;;;;27.80;4.95;;;8.20;99.30;;;;;;5047607;28;20445;-70
2022/02/21 00:20:25;;;;;;;25.98;4.72;;;8.10;99.10;;;;;;5070614;28;20445;-69
2022/02/21 00:22:51;;;;;;;32.22;4.65;;;8.10;98.40;;;;;;5070391;28;20415;-69
2022/02/21 00:25:16;;;;;;;26.95;4.30;;;8.00;98.20;;;;;;5053067;28;20407;-69
2022/02/21 00:27:42;;;;;;;22.80;4.40;;;8.00;97.70;;;;;;5069370;28;20895;-70
2022/02/21 00:30:09;;;;;;;26.00;4.05;;;8.00;96.80;;;;;;5071035;28;20948;-69
2022/02/21 00:32:35;;;;;;;25.30;4.33;;;7.90;96.50;;;;;;5067634;28;20443;-70
2022/02/21 00:35:01;;;;;;;22.90;4.30;;;7.90;96.60;;;;;;5071032;28;20787;-70
2022/02/21 00:37:26;;;;;;;28.33;4.30;;;7.90;96.10;;;;;;5052560;28;20460;-69
2022/02/21 00:39:53;;;;;;;32.13;4.40;;;7.90;96.10;;;;;;5070322;28;22443;-70
2022/02/21 00:42:22;;;;;;;26.88;4.35;;;7.90;96.40;;;;;;5052177;28;20415;-70
2022/02/21 00:44:56;;;;;;;25.67;4.53;;;7.90;96.30;;;;;;5035903;28;20418;-69
2022/02/21 00:47:25;;;;;;;22.98;4.35;;;7.90;96.60;;;;;;5067285;28;20403;-70
2022/02/21 00:49:52;;;;;;;29.48;4.32;;;7.90;96.80;;;;;;5052957;28;20818;-68
2022/02/21 00:52:18;;;;;;;26.05;4.20;;;7.90;97.30;;;;;;5051206;28;20885;-69
2022/02/21 00:54:43;;;;;;;23.63;4.10;;;7.90;97.80;;;;;;5071101;28;20495;-69
2022/02/21 00:57:09;;;;;;;25.93;3.80;;;7.90;97.80;;;;;;5069779;28;20565;-69
2022/02/21 00:59:34;;;;;;;22.92;3.83;;;7.90;96.90;;;;;;5085627;28;21042;-70
2022/02/21 01:02:02;;;;;;;27.40;4.18;;;7.90;96.70;;;;;;5070105;28;20907;-70
2022/02/21 01:04:27;;;;;;;24.88;4.07;;;7.90;97.30;;;;;;5068877;28;20490;-68
2022/02/21 01:06:55;;;;;;;28.08;4.10;;;7.80;96.70;;;;;;5051854;28;20410;-68
2022/02/21 01:09:21;;;;;;;26.58;4.38;;;7.80;96.60;;;;;;5069610;28;20415;-68
2022/02/21 01:11:47;;;;;;;22.65;4.25;;;7.80;96.40;;;;;;5070113;28;20568;-69
2022/02/21 01:14:12;;;;;;;27.73;4.30;;;7.80;96.80;;;;;;5069182;28;20422;-69
2022/02/21 01:16:38;;;;;;;22.33;3.60;;;7.80;96.90;;;;;;5070040;28;20417;-70
2022/02/21 01:19:05;;;;;;;24.88;4.50;;;7.80;97.30;;;;;;5069857;28;20442;-69
2022/02/21 01:21:31;;;;;;;18.77;3.75;;;7.80;96.60;;;;;;5070930;28;20240;-69
2022/02/21 01:23:57;;;;;;;25.40;3.70;;;7.40;97.40;;;;;;5070555;28;20186;-68
2022/02/21 01:26:23;;;;;;;21.38;3.47;;;7.10;98.00;;;;;;5071373;28;20556;-69
2022/02/21 01:28:49;;;;;;;24.73;3.50;;;6.90;98.50;;;;;;5052146;28;20175;-69
2022/02/21 01:31:15;;;;;;;23.35;3.00;;;6.80;98.90;;;;;;5070069;28;20635;-70
2022/02/21 01:33:40;;;;;;;22.25;3.42;;;6.70;99.00;;;;;;5069701;28;20194;-69
2022/02/21 01:36:06;;;;;;;25.35;3.45;;;6.60;99.00;;;;;;5069365;28;20191;-69
2022/02/21 01:38:32;;;;;;;14.13;2.85;;;6.60;99.10;;;;;;5070266;28;20187;-69
2022/02/21 01:40:57;;;;;;;23.52;3.00;;;6.60;99.20;;;;;;5052516;28;20662;-68
2022/02/21 01:43:23;;;;;;;20.02;3.08;;;6.50;99.20;;;;;;5052199;28;20215;-70
2022/02/21 01:45:49;;;;;;;21.30;3.55;;;6.40;99.20;;;;;;5069828;28;20190;-69
2022/02/21 01:48:14;;;;;;;23.25;3.38;;;6.50;99.30;;;;;;5051682;28;20234;-68
2022/02/21 01:50:42;;;;;;;25.67;3.85;;;6.40;99.40;;;;;;5070913;28;20253;-69
2022/02/21 01:53:07;;;;;;;14.98;3.00;;;6.40;99.70;;;;;;5070174;28;20209;-69
2022/02/21 01:55:33;;;;;;;19.52;3.53;;;6.40;99.70;;;;;;5070105;28;20199;-68
2022/02/21 01:57:58;;;;;;;24.38;3.10;;;6.40;99.70;;;;;;5069087;28;20194;-68
2022/02/21 02:00:24;;;;;;;19.75;3.13;;;6.40;99.60;;;;;;5069890;28;20665;-68
2022/02/21 02:02:50;;;;;;;27.25;3.47;;;6.30;99.70;;;;;;5050766;28;20736;-68
2022/02/21 02:05:17;;;;;;;17.95;3.22;;;6.30;99.90;;;;;;5070465;28;20182;-68
2022/02/21 02:07:45;;;;;;;24.95;3.50;;;6.30;99.90;;;;;;5067675;28;20190;-68
2022/02/21 02:10:15;;;;;;;25.30;3.50;;;6.30;99.90;;;;;;5069679;28;20197;-68
2022/02/21 02:12:41;;;;;;;22.08;3.47;;;6.30;99.90;;;;;;5069328;28;20659;-68
2022/02/21 02:15:12;;;;;;;33.67;3.85;;;6.30;99.90;;;;;;5070168;28;20670;-68
2022/02/21 02:17:37;;;;;;;27.50;3.67;;;6.30;99.90;;;;;;5069051;28;20209;-68
2022/02/21 02:20:03;;;;;;;29.30;3.30;;;6.30;99.90;;;;;;5052729;28;20179;-68
2022/02/21 02:22:29;;;;;;;39.40;3.65;;;6.30;99.90;;;;;;5068959;28;20206;-69
2022/02/21 02:24:55;;;;;;;28.35;3.20;;;6.20;99.90;;;;;;5070694;28;20183;-69
2022/02/21 02:27:21;;;;;;;24.60;3.30;;;6.20;99.90;;;;;;5050465;28;20363;-69
2022/02/21 02:29:53;;;;;;;27.17;3.60;;;6.20;99.90;;;;;;5068671;28;20193;-67
2022/02/21 02:32:20;;;;;;;24.65;3.50;;;6.20;99.90;;;;;;5050828;28;20225;-70
2022/02/21 02:34:47;;;;;;;23.95;3.42;;;6.30;99.90;;;;;;5052087;28;20181;-68
2022/02/21 02:37:14;;;;;;;23.80;3.47;;;6.20;99.90;;;;;;5049716;28;20195;-70
2022/02/21 02:39:40;;;;;;;28.58;3.47;;;6.20;99.90;;;;;;5068610;28;20643;-68
2022/02/21 02:42:07;;;;;;;19.73;2.97;;;6.20;99.90;;;;;;5068669;28;20214;-67
2022/02/21 02:44:32;;;;;;;25.73;3.13;;;6.20;99.90;;;;;;5068487;28;20594;-69
2022/02/21 02:46:58;;;;;;;23.63;3.33;;;6.20;99.80;;;;;;5052101;28;20185;-68
2022/02/21 02:49:24;;;;;;;18.33;3.28;;;6.20;99.80;;;;;;5068079;28;20186;-69
2022/02/21 02:51:50;;;;;;;25.00;3.15;;;6.20;99.60;;;;;;5069069;28;20182;-66
2022/02/21 02:54:16;;;;;;;29.05;3.55;;;6.20;99.90;;;;;;5069081;28;20187;-68
2022/02/21 02:56:43;;;;;;;20.92;3.42;;;6.10;99.60;;;;;;5051484;28;20640;-68
2022/02/21 02:59:09;;;;;;;21.38;3.63;;;6.10;99.60;;;;;;5067968;28;20175;-68
2022/02/21 03:01:35;;;;;;;20.02;3.40;;;6.10;99.70;;;;;;5068351;28;20217;-68
2022/02/21 03:04:04;;;;;;;16.85;2.95;;;6.10;99.60;;;;;;5067494;28;20198;-69
2022/02/21 03:06:30;;;;;;;19.13;3.03;;;6.10;99.50;;;;;;5069012;28;20689;-68
2022/02/21 03:08:56;;;;;;;18.80;2.60;;;6.10;99.30;;;;;;5068583;28;20175;-68
2022/02/21 03:11:22;;;;;;;21.02;3.40;;;6.10;99.00;;;;;;5069574;28;20191;-68
2022/02/21 03:13:47;;;;;;;26.17;3.58;;;6.10;99.20;;;;;;5068241;28;20189;-67
2022/02/21 03:16:13;;;;;;;23.80;3.33;;;6.10;99.20;;;;;;5069146;28;20227;-68
2022/02/21 03:18:38;;;;;;;23.45;3.22;;;6.10;99.10;;;;;;5050664;28;20296;-68
2022/02/21 03:21:04;;;;;;;32.30;3.70;;;6.10;99.10;;;;;;5050813;28;20273;-68
2022/02/21 03:23:30;;;;;;;17.77;3.13;;;6.10;99.20;;;;;;5068496;28;20206;-68
2022/02/21 03:25:55;;;;;;;22.15;3.90;;;6.10;99.20;;;;;;5051556;28;20178;-68
2022/02/21 03:28:21;;;;;;;29.50;3.97;;;6.10;99.20;;;;;;5067971;28;20190;-67
2022/02/21 03:30:47;;;;;;;25.55;3.60;;;6.10;99.30;;;;;;5068862;28;20203;-69
2022/02/21 03:33:13;;;;;;;18.13;3.42;;;6.10;99.30;;;;;;5067603;28;20200;-69
2022/02/21 03:35:39;;;;;;;19.65;3.30;;;6.10;99.10;;;;;;5068622;28;20670;-68
2022/02/21 03:38:05;;;;;;;24.00;3.72;;;6.10;98.80;;;;;;5064771;28;20199;-67
2022/02/21 03:40:31;;;;;;;28.23;4.18;;;6.10;98.70;;;;;;5067670;28;20233;-68
2022/02/21 03:42:57;;;;;;;23.42;3.75;;;6.00;99.00;;;;;;5068339;28;20238;-69
2022/02/21 03:45:23;;;;;;;29.45;3.75;;;6.00;99.10;;;;;;5069045;28;20232;-68
2022/02/21 03:47:50;;;;;;;22.25;2.83;;;6.00;99.20;;;;;;5067435;28;20178;-68
2022/02/21 03:50:15;;;;;;;21.15;3.42;;;6.00;99.10;;;;;;5066590;28;20197;-68
2022/02/21 03:52:41;;;;;;;23.63;3.20;;;6.00;99.20;;;;;;5068548;28;20186;-68
2022/02/21 03:55:08;;;;;;;20.40;3.50;;;6.00;98.80;;;;;;5070613;28;20273;-67
2022/02/21 03:57:33;;;;;;;28.00;3.65;;;6.00;98.70;;;;;;5072255;28;20627;-69
2022/02/21 03:59:59;;;;;;;20.85;3.50;;;6.00;98.90;;;;;;5073106;28;20178;-67
2022/02/21 04:02:25;;;;;;;22.58;3.80;;;6.00;98.90;;;;;;5071094;28;20212;-68
2022/02/21 04:04:50;;;;;;;24.73;3.10;;;5.90;98.80;;;;;;5054922;28;20217;-68
2022/02/21 04:07:16;;;;;;;29.23;3.88;;;5.90;99.00;;;;;;5072321;28;20178;-69
2022/02/21 04:09:42;;;;;;;35.65;3.85;;;5.90;98.90;;;;;;5053175;28;20263;-70
2022/02/21 04:12:08;;;;;;;24.60;3.95;;;5.90;99.10;;;;;;5070859;28;20193;-68
2022/02/21 04:14:34;;;;;;;23.08;3.67;;;5.90;99.00;;;;;;5071384;28;20186;-69
2022/02/21 04:16:59;;;;;;;22.73;3.58;;;5.90;99.00;;;;;;5038008;28;20968;-67
2022/02/21 04:19:25;;;;;;;25.77;3.75;;;5.90;99.00;;;;;;5071800;28;20182;-67
2022/02/21 04:21:51;;;;;;;23.42;3.22;;;5.90;99.10;;;;;;5072834;28;20222;-67
2022/02/21 04:24:18;;;;;;;18.08;3.33;;;5.90;99.10;;;;;;5070634;28;20183;-68
2022/02/21 04:26:43;;;;;;;23.42;3.53;;;5.90;99.20;;;;;;5072821;28;20190;-68
2022/02/21 04:29:09;;;;;;;28.85;4.10;;;5.80;99.20;;;;;;5069936;28;20178;-68
2022/02/21 04:31:35;;;;;;;24.67;3.65;;;5.90;99.30;;;;;;5070362;28;20186;-69
2022/02/21 04:34:01;;;;;;;29.55;4.32;;;5.90;99.40;;;;;;5070129;28;20206;-70
2022/02/21 04:36:28;;;;;;;25.48;3.95;;;5.90;99.50;;;;;;5072271;28;20190;-67
2022/02/21 04:38:54;;;;;;;27.08;3.40;;;5.90;99.50;;;;;;5068696;28;20666;-68
2022/02/21 04:41:20;;;;;;;27.80;4.15;;;5.90;99.60;;;;;;5068966;28;20214;-69
2022/02/21 04:43:45;;;;;;;23.92;3.22;;;5.90;99.70;;;;;;5068913;28;20259;-68
2022/02/21 04:46:11;;;;;;;30.58;4.65;;;5.90;99.80;;;;;;5072301;28;20267;-68
2022/02/21 04:48:37;;;;;;;21.60;3.65;;;5.80;99.70;;;;;;5070995;28;20651;-68
2022/02/21 04:51:02;;;;;;;22.92;3.63;;;5.80;99.70;;;;;;5071782;28;20718;-69
2022/02/21 04:53:28;;;;;;;28.73;4.03;;;5.80;99.70;;;;;;5053307;28;20196;-68
2022/02/21 04:55:54;;;;;;;19.73;3.03;;;5.80;99.70;;;;;;5071626;28;20194;-69
2022/02/21 04:58:19;;;;;;;29.63;3.22;;;5.80;99.80;;;;;;5070461;28;20182;-69
2022/02/21 05:00:45;;;;;;;24.52;3.95;;;5.90;99.90;;;;;;5053662;28;20194;-70
2022/02/21 05:03:10;;;;;;;27.33;4.40;;;5.80;99.90;;;;;;5069779;28;20941;-69
2022/02/21 05:05:36;;;;;;;22.88;4.47;;;6.10;99.60;;;;;;5069528;28;20441;-70
2022/02/21 05:08:02;;;;;;;22.97;3.57;;;6.50;98.60;;;;;;5070017;28;20888;-70
2022/02/21 05:10:29;;;;;;;28.70;4.57;;;6.70;97.90;;;;;;5070587;28;20396;-69
2022/02/21 05:12:54;;;;;;;33.00;4.50;;;6.80;97.30;;;;;;5050095;28;20923;-69
2022/02/21 05:15:20;;;;;;;27.95;4.63;;;6.90;97.00;;;;;;5068943;28;20445;-68
2022/02/21 05:17:46;;;;;;;28.67;4.65;;;6.90;96.60;;;;;;5050858;28;20422;-67
2022/02/21 05:20:12;;;;;;;27.27;4.80;;;7.00;96.30;;;;;;5069976;28;20403;-68
2022/02/21 05:22:39;;;;;;;30.17;4.78;;;7.00;96.60;;;;;;5069512;28;20445;-68
2022/02/21 05:25:06;;;;;;;27.00;4.73;;;7.00;96.50;;;;;;5070404;28;20767;-69
2022/02/21 05:27:39;;;;;;;28.60;4.78;;;7.00;96.40;;;;;;5050900;28;21228;-68
2022/02/21 05:30:07;;;;;;;28.38;4.35;;;7.00;95.80;;;;;;5069511;28;21242;-69
2022/02/21 05:32:33;;;;;;;34.03;4.90;;;7.10;95.90;;;;;;5069478;28;20526;-66
2022/02/21 05:34:58;;;;;;;26.92;4.93;;;7.10;95.90;;;;;;5069942;28;21297;-69
2022/02/21 05:37:24;;;;;;;27.23;5.07;;;7.10;95.90;;;;;;5068817;28;20869;-67
2022/02/21 05:39:50;;;;;;;26.63;4.32;;;7.10;95.70;;;;;;5070006;28;20552;-68
2022/02/21 05:42:17;;;;;;;34.20;4.93;;;7.10;95.10;;;;;;5068674;28;20414;-67
2022/02/21 05:44:42;;;;;;;25.90;4.70;;;7.10;95.20;;;;;;5067077;28;20506;-68
2022/02/21 05:47:08;;;;;;;28.93;4.13;;;7.10;95.20;;;;;;5068017;28;20491;-67
2022/02/21 05:49:34;;;;;;;26.13;4.43;;;7.10;95.10;;;;;;5068650;28;20415;-67
2022/02/21 05:52:00;;;;;;;29.50;4.20;;;7.10;94.90;;;;;;5049568;28;20401;-68
2022/02/21 05:54:26;;;;;;;30.35;4.82;;;7.10;94.50;;;;;;5066279;28;20768;-68
2022/02/21 05:56:52;;;;;;;28.13;4.40;;;7.10;94.70;;;;;;5069658;28;20450;-67
2022/02/21 05:59:18;;;;;;;30.65;4.70;;;7.10;94.90;;;;;;5068728;28;20446;-67
2022/02/21 06:01:44;;;;;;;25.10;4.40;;;7.10;95.00;;;;;;5049993;28;20415;-66
2022/02/21 06:04:10;;;;;;;31.17;4.00;;;7.20;94.90;;;;;;5066660;28;20769;-69
2022/02/21 06:06:35;;;;;;;28.02;4.63;;;7.20;94.90;;;;;;5069428;28;20407;-69
2022/02/21 06:09:03;;;;;;;27.53;4.23;;;7.20;94.80;;;;;;5067883;28;20497;-69
2022/02/21 06:11:28;;;;;;;27.25;4.28;;;7.20;94.80;;;;;;5069579;28;20407;-66
2022/02/21 06:13:54;;;;;;;28.38;4.70;;;7.10;94.70;;;;;;5067160;28;20416;-68
2022/02/21 06:16:20;;;;;;;27.88;4.30;;;7.20;94.70;;;;;;5062603;28;20408;-68
2022/02/21 06:18:46;;;;;;;24.58;4.65;;;7.20;94.40;;;;;;5048769;28;20399;-67
2022/02/21 06:21:11;;;;;;;30.27;5.03;;;7.20;94.50;;;;;;5063458;28;20424;-67
2022/02/21 06:23:37;;;;;;;28.35;5.05;;;7.20;94.70;;;;;;5067320;28;20442;-68
2022/02/21 06:26:04;;;;;;;26.90;4.67;;;7.20;94.90;;;;;;5067128;28;20418;-70
2022/02/21 06:28:29;;;;;;;27.17;4.45;;;7.20;95.20;;;;;;5067866;28;20983;-69
2022/02/21 06:30:55;;;;;;;31.93;4.90;;;7.20;94.70;;;;;;5068961;28;20438;-70
2022/02/21 06:33:21;;;;;;;31.38;4.85;;;7.20;94.40;;;;;;5065418;28;20449;-69
2022/02/21 06:35:47;;;;;;;28.73;4.20;;;7.20;94.70;;;;;;5067801;28;20415;-69
2022/02/21 06:38:19;;;;;;;31.45;4.57;;;7.20;94.60;;;;;;5082974;27;20389;-70
2022/02/21 06:40:45;;;;;;;31.92;4.43;;;7.20;94.50;;;;;;5080369;28;20771;-68
2022/02/21 06:43:11;;;;;;;33.70;4.90;;;7.20;94.60;;;;;;5083478;28;20403;-68
2022/02/21 06:45:37;;;;;;;32.45;4.40;;;7.20;94.70;;;;;;5084199;28;20835;-69
2022/02/21 06:48:03;;;;;;;34.28;4.65;;;7.20;94.70;;;;;;5093467;28;20429;-69
2022/02/21 06:50:29;;;;;;;26.00;4.15;;;7.20;94.70;;;;;;5082482;28;20416;-67
2022/02/21 06:52:55;;;;;;;29.10;4.80;;;7.20;94.80;;;;;;5083160;28;20399;-68
2022/02/21 06:55:21;;;;;;;28.70;4.82;;;7.30;94.90;;;;;;5084803;28;20802;-68
2022/02/21 06:57:48;;;;;;;34.72;4.68;;;7.30;95.10;;;;;;5083170;28;20416;-69
2022/02/21 07:00:15;;;;;;;30.63;4.93;;;7.30;95.40;;;;;;5082923;28;20409;-66
2022/02/21 07:02:41;;;;;;;32.20;4.82;;;7.30;95.40;;;;;;5083891;28;20413;-67
2022/02/21 07:05:07;;;;;;;31.30;4.68;;;7.30;95.40;;;;;;5083863;28;20410;-65
2022/02/21 07:07:34;;;;;;;30.73;4.78;;;7.30;95.40;;;;;;5083066;28;20413;-67
2022/02/21 07:10:00;;;;;;;27.20;4.80;;;7.30;95.60;;;;;;5083950;28;20407;-67
2022/02/21 07:12:26;;;;;;;33.70;4.70;;;7.30;95.60;;;;;;5084105;28;20407;-66
2022/02/21 07:14:52;;;;;;;24.75;4.10;;;7.40;95.30;;;;;;5085361;28;20455;-68
2022/02/21 07:17:17;;;;;;;28.80;4.40;;;7.40;95.20;;;;;;5084023;28;20910;-67
2022/02/21 07:19:43;;;;;;;25.65;4.85;;;7.40;95.20;;;;;;5082425;28;20414;-67
2022/02/21 07:22:09;;;;;;;24.40;4.47;;;7.40;95.40;;;;;;5085228;28;20625;-68
2022/02/21 07:24:34;;;;;;;34.83;4.97;;;7.50;95.40;;;;;;5084811;28;20482;-65
2022/02/21 07:27:00;;;;;;;27.70;4.80;;;7.50;95.20;;;;;;5083031;28;20414;-67
2022/02/21 07:29:27;;;;;;;32.03;5.20;;;7.50;95.20;;;;;;5082998;28;20446;-65
2022/02/21 07:31:53;;;;;;;25.13;4.80;;;7.60;95.40;;;;;;5083255;28;20403;-67
2022/02/21 07:34:19;;;;;;;30.10;5.00;;;7.60;95.60;;;;;;5083027;28;20418;-65
2022/02/21 07:36:45;;;;;;;32.30;5.13;;;7.60;95.70;;;;;;5089696;28;20429;-68
2022/02/21 07:39:11;;;;;;;28.17;4.80;;;7.60;96.20;;;;;;5103805;28;20443;-65
2022/02/21 07:41:41;;;;;;;32.85;5.50;;;7.60;96.70;;;;;;5103199;28;21159;-67
2022/02/21 07:44:07;;;;;;;30.77;5.28;;;7.50;97.80;;;;;;5086127;28;20401;-67
2022/02/21 07:46:32;;;;;;;35.53;5.25;;;7.40;99.60;;;;;;5085589;28;20874;-68
2022/02/21 07:48:58;;;;;;;37.60;5.40;;;7.20;99.90;;;;;;5091758;28;20417;-65
2022/02/21 07:51:24;;;;;;;33.55;5.05;;;7.00;99.90;;;;;;5090225;28;20531;-66
2022/02/21 07:53:50;;;;;;;30.33;5.05;;;6.90;99.90;;;;;;5090177;28;20484;-68
2022/02/21 07:56:16;;;;;;;34.90;4.97;;;6.80;99.90;;;;;;5088395;28;21002;-68
2022/02/21 07:58:41;;;;;;;34.83;5.30;;;6.70;99.90;;;;;;5087572;28;20454;-65
2022/02/21 08:01:07;;;;;;;33.77;4.83;;;6.60;99.90;;;;;;5089580;28;20739;-67
2022/02/21 08:03:36;;;;;;;43.53;6.88;;;6.50;99.90;;;;;;5089963;28;20420;-66
2022/02/21 08:06:04;;;;;;;49.25;6.03;;;6.50;99.90;;;;;;5071628;28;20397;-67
2022/02/21 08:08:29;;;;;;;34.65;5.47;;;6.40;99.90;;;;;;5089389;28;20401;-67
2022/02/21 08:10:55;;;;;;;40.05;6.18;;;6.40;99.90;;;;;;5089653;28;20390;-66
2022/02/21 08:13:20;;;;;;;47.17;6.03;;;6.40;99.90;;;;;;5088082;28;20404;-67
2022/02/21 08:15:46;;;;;;;36.30;5.73;;;6.40;99.90;;;;;;5089095;28;20397;-66
2022/02/21 08:18:11;;;;;;;37.70;6.07;;;6.40;99.90;;;;;;5089959;28;20902;-67
2022/02/21 08:20:37;;;;;;;38.97;5.87;;;6.40;99.90;;;;;;5089854;28;20398;-67
2022/02/21 08:23:03;;;;;;;47.17;6.88;;;6.50;99.90;;;;;;5103669;28;20401;-66
2022/02/21 08:25:28;;;;;;;40.40;6.03;;;6.50;99.90;;;;;;5088633;28;20398;-67
2022/02/21 08:27:54;;;;;;;42.40;6.03;;;6.50;99.90;;;;;;5086973;28;20496;-66
2022/02/21 08:30:22;;;;;;;42.53;6.47;;;6.50;99.90;;;;;;5082989;28;20406;-68
2022/02/21 08:32:48;;;;;;;47.42;6.40;;;6.50;99.90;;;;;;5070406;28;20409;-66
2022/02/21 08:35:14;;;;;;;41.07;5.87;;;6.50;99.90;;;;;;5088815;28;20497;-67
2022/02/21 08:37:40;;;;;;;46.72;6.82;;;6.50;99.90;;;;;;5065035;28;20470;-69
2022/02/21 08:40:09;;;;;;;46.95;6.32;;;6.50;99.90;;;;;;5068471;28;20414;-68
2022/02/21 08:42:36;;;;;;;49.58;6.55;;;6.60;99.90;;;;;;5067029;28;20412;-68
2022/02/21 08:45:03;;;;;;;44.25;6.68;;;6.60;99.90;;;;;;5068801;28;20438;-67
2022/02/21 08:47:29;;;;;;;41.80;6.45;;;6.60;99.90;;;;;;5069528;28;20425;-69
2022/02/21 08:49:55;;;;;;;47.90;6.50;;;6.60;99.90;;;;;;5068855;28;20408;-65
2022/02/21 08:52:21;;;;;;;45.83;6.47;;;6.60;99.90;;;;;;5065698;28;20455;-67
2022/02/21 08:54:46;;;;;;;45.38;6.32;;;6.70;99.90;;;;;;5069218;28;20418;-65
2022/02/21 08:57:12;;;;;;;42.73;6.83;;;6.70;99.90;;;;;;5068900;28;20425;-65
2022/02/21 08:59:38;;;;;;;46.67;6.53;;;6.70;99.90;;;;;;5066635;28;20465;-64
2022/02/21 09:02:04;;;;;;;51.63;7.10;;;6.70;99.90;;;;;;5066697;28;20795;-66
2022/02/21 09:04:29;;;;;;;52.10;7.90;;;6.80;99.90;;;;;;5064066;28;20411;-65
2022/02/21 09:06:55;;;;;;;39.25;6.60;;;6.80;99.90;;;;;;5067560;28;20916;-66
2022/02/21 09:09:22;;;;;;;47.17;6.87;;;6.90;99.90;;;;;;5066680;28;20403;-66
2022/02/21 09:11:49;;;;;;;49.83;7.23;;;6.90;99.90;;;;;;5067464;28;20978;-66
2022/02/21 09:14:15;;;;;;;36.80;6.45;;;6.90;99.90;;;;;;5066577;28;20464;-66
2022/02/21 09:16:41;;;;;;;45.55;7.18;;;6.90;99.90;;;;;;5068511;28;20432;-65
2022/02/21 09:19:06;;;;;;;43.00;6.83;;;6.90;99.90;;;;;;5064583;28;20968;-66
2022/02/21 09:21:32;;;;;;;56.78;6.90;;;7.00;99.90;;;;;;5068660;28;20404;-66
2022/02/21 09:23:58;;;;;;;52.07;7.93;;;7.00;99.90;;;;;;5064084;28;20908;-66
2022/02/21 09:26:24;;;;;;;54.38;6.88;;;7.00;99.90;;;;;;5066584;28;20784;-66
2022/02/21 09:28:49;;;;;;;53.37;7.00;;;7.00;99.90;;;;;;5065632;28;20456;-66
2022/02/21 09:31:15;;;;;;;50.42;7.10;;;7.10;99.90;;;;;;5065401;28;20403;-65
2022/02/21 09:33:41;;;;;;;51.03;7.17;;;7.10;99.90;;;;;;5063153;28;20411;-64
2022/02/21 09:36:07;;;;;;;49.83;7.22;;;7.10;99.90;;;;;;5069608;28;20473;-65
2022/02/21 09:38:32;;;;;;;41.28;6.53;;;7.10;99.90;;;;;;5086319;28;20406;-66
2022/02/21 09:40:58;;;;;;;37.85;5.75;;;7.20;99.90;;;;;;5089529;28;20182;-65
2022/02/21 09:43:29;;;;;;;35.17;5.20;;;7.00;99.90;;;;;;5086425;28;20945;-66
2022/02/21 09:46:07;;;;;;;40.47;5.63;;;6.80;99.90;;;;;;5089368;28;20186;-65
2022/02/21 09:48:36;;;;;;;52.65;6.03;;;6.70;99.90;;;;;;5085056;28;20178;-66
2022/02/21 09:51:03;;;;;;;50.63;7.25;;;6.60;99.90;;;;;;5087124;28;20521;-66
2022/02/21 09:53:33;;;;;;;47.88;6.90;;;6.90;99.90;;;;;;5085894;28;21027;-64
2022/02/21 09:55:59;;;;;;;47.28;7.47;;;7.10;99.90;;;;;;5088274;28;20966;-66
2022/02/21 09:58:26;;;;;;;44.80;7.00;;;7.30;99.90;;;;;;5086218;28;20412;-66
2022/02/21 10:00:53;;;;;;;46.38;7.63;;;7.30;99.90;;;;;;5087485;28;20406;-65
2022/02/21 10:03:36;;;;;;;56.40;8.02;;;7.40;99.90;;;;;;5084142;28;20452;-67
2022/02/21 10:06:32;;;;;;;48.63;7.85;;;7.40;99.90;;;;;;5087339;28;20488;-66
2022/02/21 10:09:04;;;;;;;53.97;7.65;;;7.40;99.90;;;;;;5064643;28;20441;-64
2022/02/21 10:11:49;;;;;;;45.20;7.27;;;7.40;99.90;;;;;;5086863;28;20411;-66
2022/02/21 10:14:17;;;;;;;45.35;6.07;;;7.40;99.90;;;;;;5086654;28;20188;-65
2022/02/21 10:16:54;;;;;;;50.67;6.43;;;7.10;99.90;;;;;;5088518;28;20216;-65
2022/02/21 10:19:25;;;;;;;45.55;6.95;;;6.90;99.90;;;;;;5084534;28;20243;-66
2022/02/21 10:22:01;;;;;;;37.78;5.28;;;6.70;99.90;;;;;;5084644;28;20909;-67
2022/02/21 10:24:46;;;;;;;57.92;6.45;;;6.60;99.90;;;;;;5085533;28;20224;-65
2022/02/21 10:27:18;;;;;;;47.03;6.07;;;6.60;99.90;;;;;;5067097;28;20430;-66
2022/02/21 10:29:52;;;;;;;46.35;6.40;;;6.50;99.90;;;;;;5084463;28;20186;-65
2022/02/21 10:32:21;;;;;;;41.42;5.68;;;6.50;99.90;;;;;;5085146;28;20185;-65
2022/02/21 10:34:48;;;;;;;55.28;7.32;;;6.50;99.90;;;;;;5086763;28;20186;-67
2022/02/21 10:37:21;;;;;;;53.17;6.15;;;6.50;99.90;;;;;;5084764;28;20233;-65
2022/02/21 10:39:46;;;;;;;54.15;6.78;;;6.50;99.90;;;;;;5084994;28;20646;-67
2022/02/21 10:42:12;;;;;;;40.75;5.28;;;6.50;99.90;;;;;;5086247;28;20193;-66
2022/02/21 10:44:40;;;;;;;62.85;6.82;;;6.50;99.90;;;;;;5085503;28;20178;-65
2022/02/21 10:47:20;;;;;;;51.90;5.88;;;6.40;99.90;;;;;;5087011;28;20208;-65
2022/02/21 10:49:58;;;;;;;51.53;5.80;;;6.50;99.90;;;;;;5086795;28;20186;-65
2022/02/21 10:52:30;;;;;;;44.38;5.60;;;6.50;99.90;;;;;;5086219;28;20255;-65
2022/02/21 10:54:57;;;;;;;53.65;6.60;;;6.50;99.90;;;;;;5086850;28;20666;-66
2022/02/21 10:57:25;;;;;;;56.40;6.07;;;6.50;99.90;;;;;;5084833;28;20217;-65
2022/02/21 10:59:52;;;;;;;50.83;6.13;;;6.50;99.90;;;;;;5089681;28;20331;-65
2022/02/21 11:02:20;;;;;;;56.42;5.97;;;6.50;99.90;;;;;;5085480;28;20596;-66
2022/02/21 11:04:46;;;;;;;61.75;8.18;;;6.60;99.90;;;;;;5085833;28;20395;-67
2022/02/21 11:07:13;;;;;;;54.10;7.75;;;6.90;99.90;;;;;;5085887;28;20744;-65
2022/02/21 11:09:40;;;;;;;53.55;7.47;;;7.30;99.90;;;;;;5088286;28;20402;-64
2022/02/21 11:12:07;;;;;;;48.55;7.07;;;7.50;99.90;;;;;;5083165;28;20413;-65
2022/02/21 11:14:34;;;;;;;47.17;6.80;;;7.60;99.90;;;;;;5093244;28;20216;-66
2022/02/21 11:17:03;;;;;;;55.17;6.60;;;7.40;99.90;;;;;;5095623;28;20206;-66
2022/02/21 11:19:29;;;;;;;54.10;6.18;;;7.30;99.90;;;;;;5086096;28;20608;-66
2022/02/21 11:21:55;;;;;;;50.67;5.82;;;7.20;99.90;;;;;;5088251;28;20208;-65
2022/02/21 11:24:27;;;;;;;56.20;6.82;;;7.10;99.90;;;;;;5089510;28;20293;-65
2022/02/21 11:27:25;;;;;;;53.22;6.95;;;7.10;99.90;;;;;;5089425;28;20201;-67
2022/02/21 11:30:02;;;;;;;51.30;6.40;;;7.10;99.90;;;;;;5091807;28;20609;-65
2022/02/21 11:32:28;;;;;;;50.92;7.03;;;7.10;99.90;;;;;;5089903;28;20186;-66
2022/02/21 11:35:12;;;;;;;54.05;6.18;;;7.20;99.90;;;;;;5091072;28;20264;-65
2022/02/21 11:37:39;;;;;;;56.80;7.00;;;7.20;99.90;;;;;;5086769;28;20221;-65
2022/02/21 11:40:06;;;;;;;51.67;6.93;;;7.30;99.90;;;;;;5090649;28;20185;-65
2022/02/21 11:42:33;;;;;;;51.85;7.45;;;7.30;99.90;;;;;;5072161;28;20209;-67
2022/02/21 11:45:01;;;;;;;47.97;6.70;;;7.30;99.90;;;;;;5089980;28;20185;-66
2022/02/21 11:47:40;;;;;;;54.30;7.47;;;7.40;99.90;;;;;;5087786;28;20553;-66
2022/02/21 11:50:21;;;;;;;60.00;7.50;;;7.40;99.90;;;;;;5069894;28;20188;-65
2022/02/21 11:52:51;;;;;;;49.72;6.28;;;7.40;99.90;;;;;;5085607;28;20185;-66
2022/02/21 11:55:40;;;;;;;60.35;7.22;;;7.40;99.90;;;;;;5090037;28;20193;-64
2022/02/21 11:58:15;;;;;;;54.90;6.68;;;7.50;99.90;;;;;;5072277;28;20209;-66
2022/02/21 12:00:42;;;;;;;44.08;6.18;;;7.50;99.90;;;;;;5090448;28;20181;-66
2022/02/21 12:03:17;;;;;;;37.70;6.00;;;7.50;99.90;;;;;;5088818;28;20211;-65
2022/02/21 12:05:43;;;;;;;50.75;7.60;;;7.60;99.90;;;;;;5082561;28;20874;-65
2022/02/21 12:08:27;;;;;;;57.85;6.50;;;8.00;99.90;;;;;;5086549;28;20194;-65
2022/02/21 12:11:07;;;;;;;48.70;6.18;;;8.00;99.90;;;;;;5072928;28;20563;-66
2022/02/21 12:13:55;;;;;;;51.55;5.95;;;8.10;99.90;;;;;;5088557;28;20671;-67
2022/02/21 12:16:21;;;;;;;42.10;5.68;;;8.20;99.90;;;;;;5075506;28;20288;-65
2022/02/21 12:18:50;;;;;;;45.85;6.22;;;8.20;99.90;;;;;;5087615;28;20178;-65
2022/02/21 12:21:28;;;;;;;34.90;5.20;;;8.20;99.90;;;;;;5087018;28;20194;-67
2022/02/21 12:24:00;;;;;;;43.13;5.32;;;8.10;99.90;;;;;;5087190;28;20307;-66
2022/02/21 12:26:36;;;;;;;52.35;7.45;;;8.10;99.90;;;;;;5071900;28;20589;-66
2022/02/21 12:29:23;;;;;;;44.40;5.75;;;8.00;99.90;;;;;;5087760;28;20550;-67
2022/02/21 12:31:59;;;;;;;51.13;5.55;;;8.00;99.90;;;;;;5090738;28;20192;-66
2022/02/21 12:34:36;;;;;;;41.92;5.88;;;8.00;99.90;;;;;;5081689;28;20262;-66
2022/02/21 12:37:04;;;;;;;45.83;5.30;;;7.90;99.90;;;;;;5089034;28;20217;-65
2022/02/21 12:39:35;;;;;;;32.10;5.03;;;8.00;99.90;;;;;;5088043;28;20638;-67
2022/02/21 12:42:01;;;;;;;38.90;5.07;;;8.00;99.90;;;;;;5089598;28;20185;-66
2022/02/21 12:44:26;;;;;;;41.08;5.20;;;7.90;99.90;;;;;;5088923;28;20228;-65
2022/02/21 12:46:56;;;;;;;46.60;5.25;;;7.90;99.90;;;;;;5090605;28;20186;-66
2022/02/21 12:49:29;;;;;;;32.83;4.25;;;7.90;99.90;;;;;;5086456;28;20254;-66